sensor_id;sensor_type;location;lat;lon;timestamp;temperature;humidity
21238;DHT22;10777;50.828;3.264;2022-08-21T00:01:21;19.90;99.90
21238;DHT22;10777;50.828;3.264;2022-08-21T00:03:48;19.60;99.90
21238;DHT22;10777;50.828;3.264;2022-08-21T00:06:14;19.80;99.90
21238;DHT22;10777;50.828;3.264;2022-08-21T00:08:40;19.70;99.90
21238;DHT22;10777;50.828;3.264;2022-08-21T00:11:06;19.60;99.90
21238;DHT22;10777;50.828;3.264;2022-08-21T00:13:32;19.80;99.90
21238;DHT22;10777;50.828;3.264;2022-08-21T00:15:59;19.60;99.90
21238;DHT22;10777;50.828;3.264;2022-08-21T00:18:26;19.40;99.90
21238;DHT22;10777;50.828;3.264;2022-08-21T00:20:52;19.60;99.90
21238;DHT22;10777;50.828;3.264;2022-08-21T00:23:18;19.80;99.90
21238;DHT22;10777;50.828;3.264;2022-08-21T00:25:44;19.80;99.90
21238;DHT22;10777;50.828;3.264;2022-08-21T00:28:11;19.50;99.90
21238;DHT22;10777;50.828;3.264;2022-08-21T00:30:37;19.70;99.90
21238;DHT22;10777;50.828;3.264;2022-08-21T00:33:04;19.80;99.90
21238;DHT22;10777;50.828;3.264;2022-08-21T00:35:34;19.70;99.90
21238;DHT22;10777;50.828;3.264;2022-08-21T00:38:00;19.60;99.90
21238;DHT22;10777;50.828;3.264;2022-08-21T00:40:35;19.30;99.90
21238;DHT22;10777;50.828;3.264;2022-08-21T00:43:04;19.40;99.90
21238;DHT22;10777;50.828;3.264;2022-08-21T00:45:31;19.20;99.90
21238;DHT22;10777;50.828;3.264;2022-08-21T00:47:57;19.20;99.90
21238;DHT22;10777;50.828;3.264;2022-08-21T00:50:27;19.40;99.90
21238;DHT22;10777;50.828;3.264;2022-08-21T00:52:54;19.40;99.90
21238;DHT22;10777;50.828;3.264;2022-08-21T00:55:21;19.40;99.90
21238;DHT22;10777;50.828;3.264;2022-08-21T00:57:51;19.20;99.90
21238;DHT22;10777;50.828;3.264;2022-08-21T01:00:24;19.20;99.90
21238;DHT22;10777;50.828;3.264;2022-08-21T01:02:50;19.30;99.90
21238;DHT22;10777;50.828;3.264;2022-08-21T01:05:15;19.30;99.90
21238;DHT22;10777;50.828;3.264;2022-08-21T01:07:42;19.30;99.90
21238;DHT22;10777;50.828;3.264;2022-08-21T01:10:09;19.00;99.90
21238;DHT22;10777;50.828;3.264;2022-08-21T01:12:35;19.10;99.90
21238;DHT22;10777;50.828;3.264;2022-08-21T01:15:04;19.10;99.90
21238;DHT22;10777;50.828;3.264;2022-08-21T01:17:30;19.30;99.90
21238;DHT22;10777;50.828;3.264;2022-08-21T01:19:58;19.40;99.90
21238;DHT22;10777;50.828;3.264;2022-08-21T01:22:24;19.40;99.90
21238;DHT22;10777;50.828;3.264;2022-08-21T01:24:49;19.40;99.90
21238;DHT22;10777;50.828;3.264;2022-08-21T01:27:15;19.40;99.90
21238;DHT22;10777;50.828;3.264;2022-08-21T01:29:48;19.60;99.90
21238;DHT22;10777;50.828;3.264;2022-08-21T01:32:18;19.70;99.90
21238;DHT22;10777;50.828;3.264;2022-08-21T01:34:46;19.70;99.90
21238;DHT22;10777;50.828;3.264;2022-08-21T01:37:12;19.60;99.90
21238;DHT22;10777;50.828;3.264;2022-08-21T01:39:39;19.40;99.90
21238;DHT22;10777;50.828;3.264;2022-08-21T01:42:06;19.60;99.90
21238;DHT22;10777;50.828;3.264;2022-08-21T01:44:32;19.60;99.90
21238;DHT22;10777;50.828;3.264;2022-08-21T01:46:59;19.50;99.90
21238;DHT22;10777;50.828;3.264;2022-08-21T01:49:26;19.00;99.90
21238;DHT22;10777;50.828;3.264;2022-08-21T01:51:52;18.90;99.90
21238;DHT22;10777;50.828;3.264;2022-08-21T01:54:18;18.90;99.90
21238;DHT22;10777;50.828;3.264;2022-08-21T01:56:47;18.70;99.90
21238;DHT22;10777;50.828;3.264;2022-08-21T01:59:14;18.80;99.90
21238;DHT22;10777;50.828;3.264;2022-08-21T02:01:40;18.70;99.90
21238;DHT22;10777;50.828;3.264;2022-08-21T02:04:07;18.60;99.90
21238;DHT22;10777;50.828;3.264;2022-08-21T02:06:34;18.50;99.90
21238;DHT22;10777;50.828;3.264;2022-08-21T02:09:01;18.10;99.90
21238;DHT22;10777;50.828;3.264;2022-08-21T02:11:27;18.20;99.90
21238;DHT22;10777;50.828;3.264;2022-08-21T02:13:53;18.20;99.90
21238;DHT22;10777;50.828;3.264;2022-08-21T02:16:19;18.40;99.90
21238;DHT22;10777;50.828;3.264;2022-08-21T02:18:44;18.40;99.90
21238;DHT22;10777;50.828;3.264;2022-08-21T02:21:10;18.30;99.90
21238;DHT22;10777;50.828;3.264;2022-08-21T02:23:36;18.30;99.90
21238;DHT22;10777;50.828;3.264;2022-08-21T02:26:04;18.20;99.90
21238;DHT22;10777;50.828;3.264;2022-08-21T02:28:30;18.10;99.90
21238;DHT22;10777;50.828;3.264;2022-08-21T02:30:56;18.30;99.90
21238;DHT22;10777;50.828;3.264;2022-08-21T02:33:23;18.50;99.90
21238;DHT22;10777;50.828;3.264;2022-08-21T02:35:49;18.40;99.90
21238;DHT22;10777;50.828;3.264;2022-08-21T02:38:19;18.50;99.90
21238;DHT22;10777;50.828;3.264;2022-08-21T02:40:46;18.40;99.90
21238;DHT22;10777;50.828;3.264;2022-08-21T02:43:13;18.30;99.90
21238;DHT22;10777;50.828;3.264;2022-08-21T02:45:39;18.40;99.90
21238;DHT22;10777;50.828;3.264;2022-08-21T02:48:08;18.40;99.90
21238;DHT22;10777;50.828;3.264;2022-08-21T02:50:38;18.50;99.90
21238;DHT22;10777;50.828;3.264;2022-08-21T02:53:06;18.40;99.90
21238;DHT22;10777;50.828;3.264;2022-08-21T02:55:34;18.50;99.90
21238;DHT22;10777;50.828;3.264;2022-08-21T02:58:00;18.50;99.90
21238;DHT22;10777;50.828;3.264;2022-08-21T03:00:30;18.50;99.90
21238;DHT22;10777;50.828;3.264;2022-08-21T03:02:56;18.60;99.90
21238;DHT22;10777;50.828;3.264;2022-08-21T03:05:23;18.40;99.90
21238;DHT22;10777;50.828;3.264;2022-08-21T03:07:49;18.40;99.90
21238;DHT22;10777;50.828;3.264;2022-08-21T03:10:15;18.30;99.90
21238;DHT22;10777;50.828;3.264;2022-08-21T03:12:41;18.10;99.90
21238;DHT22;10777;50.828;3.264;2022-08-21T03:15:10;18.10;99.90
21238;DHT22;10777;50.828;3.264;2022-08-21T03:17:37;17.90;99.90
21238;DHT22;10777;50.828;3.264;2022-08-21T03:20:05;18.10;99.90
21238;DHT22;10777;50.828;3.264;2022-08-21T03:22:31;18.00;99.90
21238;DHT22;10777;50.828;3.264;2022-08-21T03:24:57;17.80;99.90
21238;DHT22;10777;50.828;3.264;2022-08-21T03:27:23;17.60;99.90
21238;DHT22;10777;50.828;3.264;2022-08-21T03:29:50;17.70;99.90
21238;DHT22;10777;50.828;3.264;2022-08-21T03:32:15;17.80;99.90
21238;DHT22;10777;50.828;3.264;2022-08-21T03:34:41;17.70;99.90
21238;DHT22;10777;50.828;3.264;2022-08-21T03:37:07;17.60;99.90
21238;DHT22;10777;50.828;3.264;2022-08-21T03:39:34;17.60;99.90
21238;DHT22;10777;50.828;3.264;2022-08-21T03:41:59;17.60;99.90
21238;DHT22;10777;50.828;3.264;2022-08-21T03:44:27;17.70;99.90
21238;DHT22;10777;50.828;3.264;2022-08-21T03:46:56;17.90;99.90
21238;DHT22;10777;50.828;3.264;2022-08-21T03:49:22;17.90;99.90
21238;DHT22;10777;50.828;3.264;2022-08-21T03:51:48;18.00;99.90
21238;DHT22;10777;50.828;3.264;2022-08-21T03:54:13;17.80;99.90
21238;DHT22;10777;50.828;3.264;2022-08-21T03:56:39;17.70;99.90
21238;DHT22;10777;50.828;3.264;2022-08-21T03:59:05;17.70;99.90
21238;DHT22;10777;50.828;3.264;2022-08-21T04:01:31;17.80;99.90
21238;DHT22;10777;50.828;3.264;2022-08-21T04:03:57;17.90;99.90
21238;DHT22;10777;50.828;3.264;2022-08-21T04:06:23;18.00;99.90
21238;DHT22;10777;50.828;3.264;2022-08-21T04:08:48;17.80;99.90
21238;DHT22;10777;50.828;3.264;2022-08-21T04:11:14;17.60;99.90
21238;DHT22;10777;50.828;3.264;2022-08-21T04:13:40;17.60;99.90
21238;DHT22;10777;50.828;3.264;2022-08-21T04:16:07;17.70;99.90
21238;DHT22;10777;50.828;3.264;2022-08-21T04:18:33;17.80;99.90
21238;DHT22;10777;50.828;3.264;2022-08-21T04:21:00;17.90;99.90
21238;DHT22;10777;50.828;3.264;2022-08-21T04:23:26;18.00;99.90
21238;DHT22;10777;50.828;3.264;2022-08-21T04:25:54;17.80;99.90
21238;DHT22;10777;50.828;3.264;2022-08-21T04:28:21;17.90;99.90
21238;DHT22;10777;50.828;3.264;2022-08-21T04:30:48;17.90;99.90
21238;DHT22;10777;50.828;3.264;2022-08-21T04:33:14;17.80;99.90
21238;DHT22;10777;50.828;3.264;2022-08-21T04:35:40;17.70;99.90
21238;DHT22;10777;50.828;3.264;2022-08-21T04:38:07;17.70;99.90
21238;DHT22;10777;50.828;3.264;2022-08-21T04:40:33;17.80;99.90
21238;DHT22;10777;50.828;3.264;2022-08-21T04:43:03;18.10;99.90
21238;DHT22;10777;50.828;3.264;2022-08-21T04:45:47;17.90;99.90
21238;DHT22;10777;50.828;3.264;2022-08-21T04:48:15;18.10;99.90
21238;DHT22;10777;50.828;3.264;2022-08-21T04:51:02;18.10;99.90
21238;DHT22;10777;50.828;3.264;2022-08-21T04:53:49;18.20;99.90
21238;DHT22;10777;50.828;3.264;2022-08-21T04:56:23;18.30;99.90
21238;DHT22;10777;50.828;3.264;2022-08-21T04:58:51;18.30;99.90
21238;DHT22;10777;50.828;3.264;2022-08-21T05:01:21;18.20;99.90
21238;DHT22;10777;50.828;3.264;2022-08-21T05:03:49;18.20;99.90
21238;DHT22;10777;50.828;3.264;2022-08-21T05:06:16;18.20;99.90
21238;DHT22;10777;50.828;3.264;2022-08-21T05:08:45;18.20;99.90
21238;DHT22;10777;50.828;3.264;2022-08-21T05:11:12;18.10;99.90
21238;DHT22;10777;50.828;3.264;2022-08-21T05:13:38;18.00;99.90
21238;DHT22;10777;50.828;3.264;2022-08-21T05:16:06;18.10;99.90
21238;DHT22;10777;50.828;3.264;2022-08-21T05:18:31;18.10;99.90
21238;DHT22;10777;50.828;3.264;2022-08-21T05:20:57;18.20;99.90
21238;DHT22;10777;50.828;3.264;2022-08-21T05:23:23;18.30;99.90
21238;DHT22;10777;50.828;3.264;2022-08-21T05:25:48;18.40;99.90
21238;DHT22;10777;50.828;3.264;2022-08-21T05:28:14;18.70;99.90
21238;DHT22;10777;50.828;3.264;2022-08-21T05:30:40;18.70;99.90
21238;DHT22;10777;50.828;3.264;2022-08-21T05:33:06;18.90;99.90
21238;DHT22;10777;50.828;3.264;2022-08-21T05:35:32;18.90;99.90
21238;DHT22;10777;50.828;3.264;2022-08-21T05:37:59;18.70;99.90
21238;DHT22;10777;50.828;3.264;2022-08-21T05:40:26;18.80;99.90
21238;DHT22;10777;50.828;3.264;2022-08-21T05:42:53;19.10;99.90
21238;DHT22;10777;50.828;3.264;2022-08-21T05:45:19;19.00;99.90
21238;DHT22;10777;50.828;3.264;2022-08-21T05:47:45;19.00;99.90
21238;DHT22;10777;50.828;3.264;2022-08-21T05:50:10;19.30;99.90
21238;DHT22;10777;50.828;3.264;2022-08-21T05:52:36;19.50;99.90
21238;DHT22;10777;50.828;3.264;2022-08-21T05:55:03;19.60;99.90
21238;DHT22;10777;50.828;3.264;2022-08-21T05:57:29;19.40;99.90
21238;DHT22;10777;50.828;3.264;2022-08-21T05:59:54;19.60;99.90
21238;DHT22;10777;50.828;3.264;2022-08-21T06:02:21;19.50;99.90
21238;DHT22;10777;50.828;3.264;2022-08-21T06:04:48;19.50;99.90
21238;DHT22;10777;50.828;3.264;2022-08-21T06:07:14;19.70;99.90
21238;DHT22;10777;50.828;3.264;2022-08-21T06:09:40;19.80;99.90
21238;DHT22;10777;50.828;3.264;2022-08-21T06:12:08;20.00;99.90
21238;DHT22;10777;50.828;3.264;2022-08-21T06:14:35;20.20;99.90
21238;DHT22;10777;50.828;3.264;2022-08-21T06:17:05;20.10;99.90
21238;DHT22;10777;50.828;3.264;2022-08-21T06:19:31;20.10;99.90
21238;DHT22;10777;50.828;3.264;2022-08-21T06:21:58;20.20;99.90
21238;DHT22;10777;50.828;3.264;2022-08-21T06:24:23;20.10;99.90
21238;DHT22;10777;50.828;3.264;2022-08-21T06:26:49;20.20;99.90
21238;DHT22;10777;50.828;3.264;2022-08-21T06:29:15;20.20;99.90
21238;DHT22;10777;50.828;3.264;2022-08-21T06:31:47;20.30;99.90
21238;DHT22;10777;50.828;3.264;2022-08-21T06:34:14;20.50;99.90
21238;DHT22;10777;50.828;3.264;2022-08-21T06:36:40;20.80;99.90
21238;DHT22;10777;50.828;3.264;2022-08-21T06:39:05;20.70;99.90
21238;DHT22;10777;50.828;3.264;2022-08-21T06:41:32;21.00;99.90
21238;DHT22;10777;50.828;3.264;2022-08-21T06:43:58;20.90;99.90
21238;DHT22;10777;50.828;3.264;2022-08-21T06:46:28;20.60;99.90
21238;DHT22;10777;50.828;3.264;2022-08-21T06:48:55;20.60;99.90
21238;DHT22;10777;50.828;3.264;2022-08-21T06:51:21;20.40;99.90
21238;DHT22;10777;50.828;3.264;2022-08-21T06:53:48;20.60;99.90
21238;DHT22;10777;50.828;3.264;2022-08-21T06:56:14;20.80;99.90
21238;DHT22;10777;50.828;3.264;2022-08-21T06:58:40;20.90;99.90
21238;DHT22;10777;50.828;3.264;2022-08-21T07:01:06;20.80;99.90
21238;DHT22;10777;50.828;3.264;2022-08-21T07:03:36;20.70;99.90
21238;DHT22;10777;50.828;3.264;2022-08-21T07:06:04;20.50;99.90
21238;DHT22;10777;50.828;3.264;2022-08-21T07:08:29;20.40;99.90
21238;DHT22;10777;50.828;3.264;2022-08-21T07:10:57;20.60;99.90
21238;DHT22;10777;50.828;3.264;2022-08-21T07:13:23;20.80;99.90
21238;DHT22;10777;50.828;3.264;2022-08-21T07:15:49;21.10;99.90
21238;DHT22;10777;50.828;3.264;2022-08-21T07:18:15;20.90;99.90
21238;DHT22;10777;50.828;3.264;2022-08-21T07:20:42;21.10;99.90
21238;DHT22;10777;50.828;3.264;2022-08-21T07:23:11;21.30;99.90
21238;DHT22;10777;50.828;3.264;2022-08-21T07:25:38;21.00;99.90
21238;DHT22;10777;50.828;3.264;2022-08-21T07:28:04;21.10;99.90
21238;DHT22;10777;50.828;3.264;2022-08-21T07:30:29;21.20;99.90
21238;DHT22;10777;50.828;3.264;2022-08-21T07:32:55;21.40;99.90
21238;DHT22;10777;50.828;3.264;2022-08-21T07:35:21;21.40;99.90
21238;DHT22;10777;50.828;3.264;2022-08-21T07:37:47;21.20;99.90
21238;DHT22;10777;50.828;3.264;2022-08-21T07:40:14;21.20;99.90
21238;DHT22;10777;50.828;3.264;2022-08-21T07:42:42;21.30;99.90
21238;DHT22;10777;50.828;3.264;2022-08-21T07:45:09;21.00;99.90
21238;DHT22;10777;50.828;3.264;2022-08-21T07:47:34;21.10;99.90
21238;DHT22;10777;50.828;3.264;2022-08-21T07:50:00;21.10;99.90
21238;DHT22;10777;50.828;3.264;2022-08-21T07:52:26;21.30;99.90
21238;DHT22;10777;50.828;3.264;2022-08-21T07:54:52;21.40;99.90
21238;DHT22;10777;50.828;3.264;2022-08-21T07:57:18;21.50;99.90
21238;DHT22;10777;50.828;3.264;2022-08-21T07:59:44;21.30;99.90
21238;DHT22;10777;50.828;3.264;2022-08-21T08:02:09;21.50;99.90
21238;DHT22;10777;50.828;3.264;2022-08-21T08:04:35;21.60;99.90
21238;DHT22;10777;50.828;3.264;2022-08-21T08:07:01;21.40;99.90
21238;DHT22;10777;50.828;3.264;2022-08-21T08:09:26;21.30;99.90
21238;DHT22;10777;50.828;3.264;2022-08-21T08:11:52;21.30;99.90
21238;DHT22;10777;50.828;3.264;2022-08-21T08:14:18;21.50;99.90
21238;DHT22;10777;50.828;3.264;2022-08-21T08:16:43;21.90;99.90
21238;DHT22;10777;50.828;3.264;2022-08-21T08:19:09;22.10;99.90
21238;DHT22;10777;50.828;3.264;2022-08-21T08:21:35;22.20;99.90
21238;DHT22;10777;50.828;3.264;2022-08-21T08:24:03;22.30;99.90
21238;DHT22;10777;50.828;3.264;2022-08-21T08:26:28;22.40;99.90
21238;DHT22;10777;50.828;3.264;2022-08-21T08:28:54;22.60;99.90
21238;DHT22;10777;50.828;3.264;2022-08-21T08:31:20;22.60;99.90
21238;DHT22;10777;50.828;3.264;2022-08-21T08:33:45;22.80;99.90
21238;DHT22;10777;50.828;3.264;2022-08-21T08:36:14;22.70;99.90
21238;DHT22;10777;50.828;3.264;2022-08-21T08:38:41;22.80;99.90
21238;DHT22;10777;50.828;3.264;2022-08-21T08:41:14;22.80;99.90
21238;DHT22;10777;50.828;3.264;2022-08-21T08:43:44;22.80;99.90
21238;DHT22;10777;50.828;3.264;2022-08-21T08:46:14;22.80;99.90
21238;DHT22;10777;50.828;3.264;2022-08-21T08:49:06;22.80;99.90
21238;DHT22;10777;50.828;3.264;2022-08-21T08:51:46;22.90;99.90
21238;DHT22;10777;50.828;3.264;2022-08-21T08:54:17;22.70;99.90
21238;DHT22;10777;50.828;3.264;2022-08-21T08:56:44;22.80;99.90
21238;DHT22;10777;50.828;3.264;2022-08-21T08:59:23;22.80;99.90
21238;DHT22;10777;50.828;3.264;2022-08-21T09:01:52;22.90;99.90
21238;DHT22;10777;50.828;3.264;2022-08-21T09:04:22;23.00;99.90
21238;DHT22;10777;50.828;3.264;2022-08-21T09:07:12;22.80;99.90
21238;DHT22;10777;50.828;3.264;2022-08-21T09:10:03;23.10;99.90
21238;DHT22;10777;50.828;3.264;2022-08-21T09:18:40;23.30;99.90
21238;DHT22;10777;50.828;3.264;2022-08-21T09:24:15;22.50;99.90
21238;DHT22;10777;50.828;3.264;2022-08-21T09:27:06;22.70;99.90
21238;DHT22;10777;50.828;3.264;2022-08-21T09:29:37;22.80;99.90
21238;DHT22;10777;50.828;3.264;2022-08-21T09:32:15;23.20;99.90
21238;DHT22;10777;50.828;3.264;2022-08-21T09:34:55;23.50;99.90
21238;DHT22;10777;50.828;3.264;2022-08-21T09:37:21;23.80;99.90
21238;DHT22;10777;50.828;3.264;2022-08-21T09:39:47;23.60;99.90
21238;DHT22;10777;50.828;3.264;2022-08-21T09:42:23;23.80;99.90
21238;DHT22;10777;50.828;3.264;2022-08-21T09:45:06;23.50;99.90
21238;DHT22;10777;50.828;3.264;2022-08-21T09:47:32;23.30;99.90
21238;DHT22;10777;50.828;3.264;2022-08-21T09:50:08;23.40;99.90
21238;DHT22;10777;50.828;3.264;2022-08-21T09:52:34;23.50;99.90
21238;DHT22;10777;50.828;3.264;2022-08-21T09:55:00;23.90;99.90
21238;DHT22;10777;50.828;3.264;2022-08-21T09:57:45;23.90;99.90
21238;DHT22;10777;50.828;3.264;2022-08-21T10:00:26;24.30;99.90
21238;DHT22;10777;50.828;3.264;2022-08-21T10:02:52;24.50;99.90
21238;DHT22;10777;50.828;3.264;2022-08-21T10:05:21;24.50;99.90
21238;DHT22;10777;50.828;3.264;2022-08-21T10:07:48;24.10;99.90
21238;DHT22;10777;50.828;3.264;2022-08-21T10:10:19;23.90;99.90
21238;DHT22;10777;50.828;3.264;2022-08-21T10:13:12;24.10;99.90
21238;DHT22;10777;50.828;3.264;2022-08-21T10:15:56;24.50;99.90
21238;DHT22;10777;50.828;3.264;2022-08-21T10:18:30;24.50;99.90
21238;DHT22;10777;50.828;3.264;2022-08-21T10:21:09;24.50;99.90
21238;DHT22;10777;50.828;3.264;2022-08-21T10:26:20;24.60;99.90
21238;DHT22;10777;50.828;3.264;2022-08-21T10:29:02;24.60;99.90
21238;DHT22;10777;50.828;3.264;2022-08-21T10:32:03;24.70;99.90
21238;DHT22;10777;50.828;3.264;2022-08-21T10:34:37;24.80;99.90
21238;DHT22;10777;50.828;3.264;2022-08-21T10:37:26;24.60;99.90
21238;DHT22;10777;50.828;3.264;2022-08-21T10:40:17;24.80;99.90
21238;DHT22;10777;50.828;3.264;2022-08-21T10:43:10;24.70;99.90
21238;DHT22;10777;50.828;3.264;2022-08-21T10:48:52;24.70;99.90
21238;DHT22;10777;50.828;3.264;2022-08-21T10:54:29;25.40;99.90
21238;DHT22;10777;50.828;3.264;2022-08-21T10:57:05;25.20;99.90
21238;DHT22;10777;50.828;3.264;2022-08-21T10:59:41;24.80;99.90
21238;DHT22;10777;50.828;3.264;2022-08-21T11:02:31;24.70;99.90
21238;DHT22;10777;50.828;3.264;2022-08-21T11:05:07;24.90;99.90
21238;DHT22;10777;50.828;3.264;2022-08-21T11:07:48;25.00;99.90
21238;DHT22;10777;50.828;3.264;2022-08-21T11:10:28;25.10;99.90
21238;DHT22;10777;50.828;3.264;2022-08-21T11:13:01;25.20;99.90
21238;DHT22;10777;50.828;3.264;2022-08-21T11:15:37;25.40;99.90
21238;DHT22;10777;50.828;3.264;2022-08-21T11:18:17;25.40;99.90
21238;DHT22;10777;50.828;3.264;2022-08-21T11:24:06;25.20;99.90
21238;DHT22;10777;50.828;3.264;2022-08-21T11:26:44;25.10;99.90
21238;DHT22;10777;50.828;3.264;2022-08-21T11:29:21;24.90;99.90
21238;DHT22;10777;50.828;3.264;2022-08-21T11:34:54;24.50;99.90
21238;DHT22;10777;50.828;3.264;2022-08-21T11:37:41;24.40;99.90
21238;DHT22;10777;50.828;3.264;2022-08-21T11:40:49;24.50;99.90
21238;DHT22;10777;50.828;3.264;2022-08-21T11:43:24;24.70;99.90
21238;DHT22;10777;50.828;3.264;2022-08-21T11:46:07;24.60;99.90
21238;DHT22;10777;50.828;3.264;2022-08-21T11:49:07;24.80;99.90
21238;DHT22;10777;50.828;3.264;2022-08-21T11:51:39;25.00;99.90
21238;DHT22;10777;50.828;3.264;2022-08-21T11:54:16;25.00;99.90
21238;DHT22;10777;50.828;3.264;2022-08-21T11:56:51;25.10;99.90
21238;DHT22;10777;50.828;3.264;2022-08-21T12:02:19;25.30;99.90
21238;DHT22;10777;50.828;3.264;2022-08-21T12:04:51;25.30;99.90
21238;DHT22;10777;50.828;3.264;2022-08-21T12:07:39;25.40;99.90
21238;DHT22;10777;50.828;3.264;2022-08-21T12:10:11;25.50;99.90
21238;DHT22;10777;50.828;3.264;2022-08-21T12:12:39;25.60;99.90
21238;DHT22;10777;50.828;3.264;2022-08-21T12:15:26;25.90;99.90
21238;DHT22;10777;50.828;3.264;2022-08-21T12:17:59;26.30;99.90
21238;DHT22;10777;50.828;3.264;2022-08-21T12:20:40;26.30;99.90
21238;DHT22;10777;50.828;3.264;2022-08-21T12:23:26;26.40;99.90
21238;DHT22;10777;50.828;3.264;2022-08-21T12:26:17;26.30;99.90
21238;DHT22;10777;50.828;3.264;2022-08-21T12:28:44;25.90;99.90
21238;DHT22;10777;50.828;3.264;2022-08-21T12:31:22;25.80;99.90
21238;DHT22;10777;50.828;3.264;2022-08-21T12:33:56;26.20;99.90
21238;DHT22;10777;50.828;3.264;2022-08-21T12:36:29;26.30;99.90
21238;DHT22;10777;50.828;3.264;2022-08-21T12:39:02;26.20;99.90
21238;DHT22;10777;50.828;3.264;2022-08-21T12:41:33;26.50;99.90
21238;DHT22;10777;50.828;3.264;2022-08-21T12:44:04;26.50;99.90
21238;DHT22;10777;50.828;3.264;2022-08-21T12:46:38;26.60;99.90
21238;DHT22;10777;50.828;3.264;2022-08-21T12:49:16;26.20;99.90
21238;DHT22;10777;50.828;3.264;2022-08-21T12:52:09;26.00;99.90
21238;DHT22;10777;50.828;3.264;2022-08-21T12:54:42;25.70;99.90
21238;DHT22;10777;50.828;3.264;2022-08-21T12:57:16;25.60;99.90
21238;DHT22;10777;50.828;3.264;2022-08-21T12:59:43;25.60;99.90
21238;DHT22;10777;50.828;3.264;2022-08-21T13:02:18;25.70;99.90
21238;DHT22;10777;50.828;3.264;2022-08-21T13:04:44;25.70;99.90
21238;DHT22;10777;50.828;3.264;2022-08-21T13:07:14;25.70;99.90
21238;DHT22;10777;50.828;3.264;2022-08-21T13:09:49;25.70;99.90
21238;DHT22;10777;50.828;3.264;2022-08-21T13:12:17;25.80;99.90
21238;DHT22;10777;50.828;3.264;2022-08-21T13:14:45;25.70;99.90
21238;DHT22;10777;50.828;3.264;2022-08-21T13:17:14;25.80;99.90
21238;DHT22;10777;50.828;3.264;2022-08-21T13:19:42;25.90;99.90
21238;DHT22;10777;50.828;3.264;2022-08-21T13:22:15;25.80;99.90
21238;DHT22;10777;50.828;3.264;2022-08-21T13:24:41;25.80;99.90
21238;DHT22;10777;50.828;3.264;2022-08-21T13:27:26;25.90;99.90
21238;DHT22;10777;50.828;3.264;2022-08-21T13:30:20;25.80;99.90
21238;DHT22;10777;50.828;3.264;2022-08-21T13:32:49;25.60;99.90
21238;DHT22;10777;50.828;3.264;2022-08-21T13:35:20;25.50;99.90
21238;DHT22;10777;50.828;3.264;2022-08-21T13:37:47;25.40;99.90
21238;DHT22;10777;50.828;3.264;2022-08-21T13:40:17;25.60;99.90
21238;DHT22;10777;50.828;3.264;2022-08-21T13:42:46;25.90;99.90
21238;DHT22;10777;50.828;3.264;2022-08-21T13:45:15;25.90;99.90
21238;DHT22;10777;50.828;3.264;2022-08-21T13:47:41;25.80;99.90
21238;DHT22;10777;50.828;3.264;2022-08-21T13:50:08;25.80;99.90
21238;DHT22;10777;50.828;3.264;2022-08-21T13:52:49;25.80;99.90
21238;DHT22;10777;50.828;3.264;2022-08-21T13:55:17;25.50;99.90
21238;DHT22;10777;50.828;3.264;2022-08-21T13:57:42;25.40;99.90
21238;DHT22;10777;50.828;3.264;2022-08-21T14:00:16;25.50;99.90
21238;DHT22;10777;50.828;3.264;2022-08-21T14:02:46;25.60;99.90
21238;DHT22;10777;50.828;3.264;2022-08-21T14:05:29;25.90;99.90
21238;DHT22;10777;50.828;3.264;2022-08-21T14:08:06;26.00;99.90
21238;DHT22;10777;50.828;3.264;2022-08-21T14:10:36;26.00;99.90
21238;DHT22;10777;50.828;3.264;2022-08-21T14:13:04;26.10;99.90
21238;DHT22;10777;50.828;3.264;2022-08-21T14:15:33;25.90;99.90
21238;DHT22;10777;50.828;3.264;2022-08-21T14:18:09;25.80;99.90
21238;DHT22;10777;50.828;3.264;2022-08-21T14:20:38;25.90;99.90
21238;DHT22;10777;50.828;3.264;2022-08-21T14:23:03;26.00;99.90
21238;DHT22;10777;50.828;3.264;2022-08-21T14:25:41;26.00;99.90
21238;DHT22;10777;50.828;3.264;2022-08-21T14:28:24;26.30;99.90
21238;DHT22;10777;50.828;3.264;2022-08-21T14:30:51;26.60;99.90
21238;DHT22;10777;50.828;3.264;2022-08-21T14:33:25;26.90;99.90
21238;DHT22;10777;50.828;3.264;2022-08-21T14:35:50;26.60;99.90
21238;DHT22;10777;50.828;3.264;2022-08-21T14:38:19;27.00;99.90
21238;DHT22;10777;50.828;3.264;2022-08-21T14:40:50;27.50;99.90
21238;DHT22;10777;50.828;3.264;2022-08-21T14:43:17;28.50;99.90
21238;DHT22;10777;50.828;3.264;2022-08-21T14:45:43;28.90;99.90
21238;DHT22;10777;50.828;3.264;2022-08-21T14:48:09;28.80;99.90
21238;DHT22;10777;50.828;3.264;2022-08-21T14:50:35;28.30;99.90
21238;DHT22;10777;50.828;3.264;2022-08-21T14:53:01;27.90;99.90
21238;DHT22;10777;50.828;3.264;2022-08-21T14:55:27;27.60;99.90
21238;DHT22;10777;50.828;3.264;2022-08-21T14:57:54;27.30;99.90
21238;DHT22;10777;50.828;3.264;2022-08-21T15:00:24;27.40;99.90
21238;DHT22;10777;50.828;3.264;2022-08-21T15:02:50;27.40;99.90
21238;DHT22;10777;50.828;3.264;2022-08-21T15:05:17;27.50;99.90
21238;DHT22;10777;50.828;3.264;2022-08-21T15:07:43;27.60;99.90
21238;DHT22;10777;50.828;3.264;2022-08-21T15:10:10;26.90;99.90
21238;DHT22;10777;50.828;3.264;2022-08-21T15:12:36;27.20;99.90
21238;DHT22;10777;50.828;3.264;2022-08-21T15:15:04;27.10;99.90
21238;DHT22;10777;50.828;3.264;2022-08-21T15:17:30;26.80;99.90
21238;DHT22;10777;50.828;3.264;2022-08-21T15:19:56;27.10;99.90
21238;DHT22;10777;50.828;3.264;2022-08-21T15:22:22;27.80;99.90
21238;DHT22;10777;50.828;3.264;2022-08-21T15:24:47;28.90;99.90
21238;DHT22;10777;50.828;3.264;2022-08-21T15:27:16;29.50;99.90
21238;DHT22;10777;50.828;3.264;2022-08-21T15:29:42;30.70;99.90
21238;DHT22;10777;50.828;3.264;2022-08-21T15:32:26;31.70;99.90
21238;DHT22;10777;50.828;3.264;2022-08-21T15:34:54;32.60;99.90
21238;DHT22;10777;50.828;3.264;2022-08-21T15:37:21;32.70;99.90
21238;DHT22;10777;50.828;3.264;2022-08-21T15:39:49;32.30;99.60
21238;DHT22;10777;50.828;3.264;2022-08-21T15:42:15;31.40;99.90
21238;DHT22;10777;50.828;3.264;2022-08-21T15:44:41;30.80;99.90
21238;DHT22;10777;50.828;3.264;2022-08-21T15:47:17;30.20;99.90
21238;DHT22;10777;50.828;3.264;2022-08-21T15:49:43;29.70;99.90
21238;DHT22;10777;50.828;3.264;2022-08-21T15:52:12;28.80;99.90
21238;DHT22;10777;50.828;3.264;2022-08-21T15:54:38;28.30;99.90
21238;DHT22;10777;50.828;3.264;2022-08-21T15:57:04;27.50;99.90
21238;DHT22;10777;50.828;3.264;2022-08-21T15:59:37;27.40;99.90
21238;DHT22;10777;50.828;3.264;2022-08-21T16:02:06;27.30;99.90
21238;DHT22;10777;50.828;3.264;2022-08-21T16:04:32;27.20;99.90
21238;DHT22;10777;50.828;3.264;2022-08-21T16:06:58;27.00;99.90
21238;DHT22;10777;50.828;3.264;2022-08-21T16:09:24;26.80;99.90
21238;DHT22;10777;50.828;3.264;2022-08-21T16:11:50;26.60;99.90
21238;DHT22;10777;50.828;3.264;2022-08-21T16:14:16;26.60;99.90